createdAt,value
2023-03-26T00:00:17.131Z,12.5
2023-03-26T00:02:47.330Z,12.5
2023-03-26T00:05:18.447Z,12.6
2023-03-26T00:07:49.473Z,12.5
2023-03-26T00:10:19.708Z,12.5
2023-03-26T00:12:49.917Z,12.4
2023-03-26T00:15:20.408Z,12.4
2023-03-26T00:17:51.873Z,12.4
2023-03-26T00:20:21.709Z,12.4
2023-03-26T00:22:51.890Z,12.4
2023-03-26T00:25:22.281Z,12.5
2023-03-26T00:27:52.604Z,12.4
2023-03-26T00:30:24.990Z,12.4
2023-03-26T00:32:54.089Z,12.3
2023-03-26T00:35:24.100Z,12.3
2023-03-26T00:37:55.786Z,12.3
2023-03-26T00:40:26.024Z,12.3
2023-03-26T00:42:57.004Z,12.2
2023-03-26T00:45:27.534Z,12.2
2023-03-26T00:47:57.841Z,12.2
2023-03-26T00:50:27.982Z,12.2
2023-03-26T00:52:58.353Z,12.2
2023-03-26T00:55:29.770Z,12
2023-03-26T00:58:02.005Z,11.9
2023-03-26T01:00:32.463Z,11.9
2023-03-26T01:03:04.066Z,12
2023-03-26T01:05:34.023Z,11.9
2023-03-26T01:08:04.557Z,12
2023-03-26T01:10:34.922Z,11.9
2023-03-26T01:13:05.278Z,11.9
2023-03-26T01:15:35.522Z,11.9
2023-03-26T01:18:06.416Z,11.8
2023-03-26T01:20:37.025Z,11.9
2023-03-26T01:23:07.209Z,12
2023-03-26T01:25:37.845Z,11.9
2023-03-26T01:28:07.610Z,11.9
2023-03-26T01:30:37.785Z,11.8
2023-03-26T01:33:08.388Z,11.9
2023-03-26T01:35:38.716Z,11.8
2023-03-26T01:38:09.632Z,11.8
2023-03-26T01:40:39.491Z,11.7
2023-03-26T01:43:09.942Z,11.6
2023-03-26T01:45:40.694Z,11.7
2023-03-26T01:48:11.279Z,11.7
2023-03-26T01:50:42.044Z,11.6
2023-03-26T01:53:12.722Z,11.6
2023-03-26T01:55:43.086Z,11.6
2023-03-26T01:58:13.684Z,11.6
2023-03-26T02:00:43.577Z,11.6
2023-03-26T02:03:14.397Z,11.6
2023-03-26T02:05:44.806Z,11.5
2023-03-26T02:08:15.064Z,11.5
2023-03-26T02:10:45.741Z,11.5
2023-03-26T02:13:16.126Z,11.5
2023-03-26T02:15:46.740Z,11.6
2023-03-26T02:18:17.427Z,11.5
2023-03-26T02:20:48.102Z,11.4
2023-03-26T02:23:18.164Z,11.5
2023-03-26T02:25:50.847Z,11.5
2023-03-26T02:28:21.697Z,11.4
2023-03-26T02:30:52.041Z,11.4
2023-03-26T02:33:22.362Z,11.4
2023-03-26T02:35:55.366Z,11.5
2023-03-26T02:38:25.618Z,11.5
2023-03-26T02:40:56.086Z,11.4
2023-03-26T02:43:26.255Z,11.5
2023-03-26T02:45:57.060Z,11.4
2023-03-26T02:48:27.992Z,11.4
2023-03-26T02:50:58.279Z,11.4
2023-03-26T02:53:34.117Z,11.4
2023-03-26T02:56:04.861Z,11.4
2023-03-26T02:58:35.798Z,11.4
2023-03-26T03:01:05.973Z,11.4
2023-03-26T03:03:36.208Z,11.3
2023-03-26T03:06:07.071Z,11.3
2023-03-26T03:08:37.072Z,11.2
2023-03-26T03:11:07.301Z,11.2
2023-03-26T03:13:37.915Z,11
2023-03-26T03:16:08.305Z,11.1
2023-03-26T03:18:40.389Z,11.1
2023-03-26T03:21:11.950Z,11.1
2023-03-26T03:23:42.565Z,11.1
2023-03-26T03:26:18.948Z,11.1
2023-03-26T03:28:49.541Z,11.1
2023-03-26T03:31:19.933Z,11
2023-03-26T03:33:50.362Z,11.1
2023-03-26T03:36:21.746Z,10.9
2023-03-26T03:38:51.433Z,10.9
2023-03-26T03:41:21.956Z,10.9
2023-03-26T03:43:52.613Z,10.9
2023-03-26T03:46:23.285Z,10.8
2023-03-26T03:48:54.609Z,10.8
2023-03-26T03:51:25.227Z,10.8
2023-03-26T03:53:55.751Z,10.6
2023-03-26T03:56:26.173Z,10.6
2023-03-26T03:58:56.066Z,10.5
2023-03-26T04:01:27.049Z,10.4
2023-03-26T04:03:57.609Z,10.4
2023-03-26T04:06:28.370Z,10.4
2023-03-26T04:08:58.923Z,10.4
2023-03-26T04:11:29.852Z,10.4
2023-03-26T04:14:00.817Z,10.4
2023-03-26T04:16:30.117Z,10.4
2023-03-26T04:19:00.574Z,10.3
2023-03-26T04:21:33.132Z,10.3
2023-03-26T04:24:03.644Z,10.3
2023-03-26T04:26:34.293Z,10.3
2023-03-26T04:29:04.619Z,10.4
2023-03-26T04:31:34.877Z,10.4
2023-03-26T04:34:04.058Z,10.4
2023-03-26T04:36:34.464Z,10.5
2023-03-26T04:39:04.814Z,10.5
2023-03-26T04:41:35.461Z,10.5
2023-03-26T04:44:06.228Z,10.5
2023-03-26T04:46:36.638Z,10.4
2023-03-26T04:49:07.273Z,10.4
2023-03-26T04:51:41.726Z,10.5
2023-03-26T04:54:12.622Z,10.4
2023-03-26T04:56:43.612Z,10.5
2023-03-26T04:59:14.076Z,10.5
2023-03-26T05:01:46.575Z,10.6
2023-03-26T05:04:17.258Z,10.6
2023-03-26T05:06:47.424Z,10.6
2023-03-26T05:09:17.804Z,10.6
2023-03-26T05:11:48.414Z,10.7
2023-03-26T05:14:18.618Z,10.7
2023-03-26T05:16:50.608Z,10.8
2023-03-26T05:19:21.452Z,10.8
2023-03-26T05:21:51.672Z,10.9
2023-03-26T05:24:22.165Z,10.9
2023-03-26T05:26:53.104Z,10.9
2023-03-26T05:29:23.326Z,11
2023-03-26T05:31:53.438Z,10.9
2023-03-26T05:34:23.608Z,11
2023-03-26T05:36:53.831Z,11.1
2023-03-26T05:39:24.730Z,11.1
2023-03-26T05:41:54.969Z,11
2023-03-26T05:44:25.636Z,11.1
2023-03-26T05:46:56.450Z,11.1
2023-03-26T05:49:26.818Z,11.2
2023-03-26T05:51:58.488Z,11.3
2023-03-26T05:54:30.144Z,11.4
2023-03-26T05:57:00.832Z,11.5
2023-03-26T05:59:32.425Z,11.6
2023-03-26T06:02:02.810Z,11.6
2023-03-26T06:04:33.097Z,11.8
2023-03-26T06:07:04.584Z,11.9
2023-03-26T06:09:34.789Z,12
2023-03-26T06:12:05.068Z,12.1
2023-03-26T06:14:35.518Z,12.2
2023-03-26T06:17:05.772Z,12.3
2023-03-26T06:19:36.306Z,12.4
2023-03-26T06:22:06.812Z,12.4
2023-03-26T06:24:37.939Z,12.5
2023-03-26T06:27:08.791Z,12.6
2023-03-26T06:29:38.912Z,12.6
2023-03-26T06:32:18.815Z,12.8
2023-03-26T06:34:39.203Z,13
2023-03-26T06:37:09.761Z,13
2023-03-26T06:39:39.791Z,13
2023-03-26T06:42:10.058Z,13.2
2023-03-26T06:44:40.923Z,13.3
2023-03-26T06:47:11.565Z,13.4
2023-03-26T06:49:43.124Z,13.5
2023-03-26T06:52:12.604Z,13.6
2023-03-26T06:54:42.672Z,13.6
2023-03-26T06:57:13.555Z,13.7
2023-03-26T06:59:43.534Z,13.8
2023-03-26T07:02:13.944Z,13.9
2023-03-26T07:04:44.275Z,14.1
2023-03-26T07:07:14.484Z,14.2
2023-03-26T07:09:45.228Z,14.2
2023-03-26T07:12:15.825Z,14.1
2023-03-26T07:14:45.946Z,14.2
2023-03-26T07:17:16.081Z,14.4
2023-03-26T07:19:46.175Z,14.5
2023-03-26T07:22:18.254Z,14.6
2023-03-26T07:24:49.657Z,14.7
2023-03-26T07:27:19.825Z,14.7
2023-03-26T07:29:50.543Z,14.8
2023-03-26T07:32:21.111Z,14.9
2023-03-26T07:34:52.279Z,14.9
2023-03-26T07:37:22.815Z,15.1
2023-03-26T07:39:52.941Z,15.1
2023-03-26T07:42:23.320Z,15.2
2023-03-26T07:44:53.896Z,15.2
2023-03-26T07:47:24.405Z,15.4
2023-03-26T07:49:54.989Z,15.5
2023-03-26T07:52:25.501Z,15.5
2023-03-26T07:54:57.246Z,15.6
2023-03-26T07:57:27.413Z,15.7
2023-03-26T07:59:57.992Z,15.8
2023-03-26T08:02:29.135Z,15.8
2023-03-26T08:05:00.414Z,15.8
2023-03-26T08:07:32.073Z,15.8
2023-03-26T08:10:03.445Z,15.9
2023-03-26T08:12:34.512Z,16
2023-03-26T08:15:05.044Z,16.2
2023-03-26T08:17:37.716Z,16.3
2023-03-26T08:20:09.686Z,16.3
2023-03-26T08:22:40.261Z,16.4
2023-03-26T08:25:10.978Z,16.5
2023-03-26T08:27:41.532Z,16.5
2023-03-26T08:30:12.368Z,16.6
2023-03-26T08:32:42.579Z,16.5
2023-03-26T08:35:13.227Z,16.7
2023-03-26T08:37:43.705Z,16.8
2023-03-26T08:40:14.518Z,16.8
2023-03-26T08:42:45.100Z,16.8
2023-03-26T08:45:15.313Z,16.8
2023-03-26T08:47:45.968Z,17
2023-03-26T08:50:16.979Z,17
2023-03-26T08:52:50.041Z,17.1
2023-03-26T08:55:20.478Z,17.2
2023-03-26T08:57:50.468Z,17.3
2023-03-26T09:00:22.039Z,17.4
2023-03-26T09:02:52.636Z,17.5
2023-03-26T09:05:22.696Z,17.4
2023-03-26T09:07:52.940Z,17.6
2023-03-26T09:10:23.251Z,17.5
2023-03-26T09:12:53.438Z,17.4
2023-03-26T09:15:24.209Z,17.5
2023-03-26T09:17:56.648Z,17.5
2023-03-26T09:20:25.055Z,17.7
2023-03-26T09:22:55.161Z,17.6
2023-03-26T09:25:25.147Z,17.8
2023-03-26T09:27:55.739Z,17.8
2023-03-26T09:30:24.668Z,17.8
2023-03-26T09:32:54.734Z,18
2023-03-26T09:35:25.589Z,18
2023-03-26T09:37:56.526Z,18.2
2023-03-26T09:40:26.915Z,18.2
2023-03-26T09:42:57.814Z,18.2
2023-03-26T09:45:28.591Z,18.4
2023-03-26T09:47:59.390Z,18.3
2023-03-26T09:50:30.116Z,18.4
2023-03-26T09:53:00.321Z,18.5
2023-03-26T09:55:30.872Z,18.6
2023-03-26T09:58:02.031Z,18.6
2023-03-26T10:00:32.416Z,18.6
2023-03-26T10:03:02.831Z,18.6
2023-03-26T10:05:33.218Z,18.6
2023-03-26T10:08:03.878Z,18.6
2023-03-26T10:10:34.970Z,18.7
2023-03-26T10:13:14.343Z,18.6
2023-03-26T10:15:35.877Z,18.9
2023-03-26T10:18:26.545Z,18.8
2023-03-26T10:20:37.425Z,18.9
2023-03-26T10:23:08.797Z,18.9
2023-03-26T10:25:37.875Z,18.9
2023-03-26T10:28:08.481Z,19
2023-03-26T10:30:39.205Z,19
2023-03-26T10:33:09.381Z,19.1
2023-03-26T10:35:39.935Z,19.2
2023-03-26T10:38:10.039Z,19.1
2023-03-26T10:40:40.615Z,19.3
2023-03-26T10:43:12.426Z,19.4
2023-03-26T10:45:41.386Z,19.4
2023-03-26T10:48:15.998Z,19.4
2023-03-26T10:50:46.190Z,19.5
2023-03-26T10:53:16.736Z,19.6
2023-03-26T10:55:47.047Z,19.7
2023-03-26T10:58:17.220Z,19.9
2023-03-26T11:00:47.710Z,19.8
2023-03-26T11:03:18.453Z,19.8
2023-03-26T11:05:48.720Z,20
2023-03-26T11:08:19.202Z,20.1
2023-03-26T11:10:49.723Z,20.1
2023-03-26T11:13:19.868Z,20.1
2023-03-26T11:15:49.802Z,20.1
2023-03-26T11:18:19.932Z,20.1
2023-03-26T11:20:52.100Z,20
2023-03-26T11:23:22.906Z,20.1
2023-03-26T11:25:53.105Z,20
2023-03-26T11:28:23.684Z,19.9
2023-03-26T11:30:54.227Z,20
2023-03-26T11:33:24.768Z,19.9
2023-03-26T11:35:55.816Z,19.8
2023-03-26T11:38:27.117Z,19.9
2023-03-26T11:40:57.690Z,20
2023-03-26T11:43:28.031Z,20
2023-03-26T11:45:58.674Z,20
2023-03-26T11:48:28.752Z,20
2023-03-26T11:50:59.439Z,20.2
2023-03-26T11:53:30.364Z,20.2
2023-03-26T11:56:02.266Z,20
2023-03-26T11:58:32.639Z,20.1
2023-03-26T12:01:02.613Z,20
2023-03-26T12:03:31.416Z,20
2023-03-26T12:06:01.652Z,20
2023-03-26T12:08:32.750Z,20.1
2023-03-26T12:11:03.122Z,20.1
2023-03-26T12:13:33.446Z,20.3
2023-03-26T12:16:03.794Z,20.4
2023-03-26T12:18:35.659Z,20.3
2023-03-26T12:21:08.803Z,20.4
2023-03-26T12:23:36.678Z,20.4
2023-03-26T12:26:07.622Z,20.4
2023-03-26T12:28:38.426Z,20.4
2023-03-26T12:31:09.186Z,20.4
2023-03-26T12:33:40.189Z,20.5
2023-03-26T12:36:10.724Z,20.6
2023-03-26T12:38:41.588Z,20.6
2023-03-26T12:42:36.797Z,20.5
2023-03-26T12:44:45.470Z,20.6
2023-03-26T12:47:15.095Z,20.7
2023-03-26T12:48:48.809Z,20.8
2023-03-26T12:51:19.942Z,20.8
2023-03-26T12:53:50.888Z,20.9
2023-03-26T12:56:21.990Z,20.9
2023-03-26T12:58:52.146Z,21
2023-03-26T13:01:23.376Z,21.1
2023-03-26T13:03:54.007Z,21
2023-03-26T13:06:24.620Z,21.1
2023-03-26T13:08:56.178Z,21.2
2023-03-26T13:11:27.146Z,21.3
2023-03-26T13:13:58.327Z,21.3
2023-03-26T13:16:29.133Z,21.2
2023-03-26T13:18:59.354Z,21.2
2023-03-26T13:21:29.645Z,21
2023-03-26T13:23:59.683Z,21
2023-03-26T13:26:29.943Z,20.9
2023-03-26T13:29:00.473Z,21
2023-03-26T13:31:31.235Z,20.9
2023-03-26T13:34:01.962Z,20.8
2023-03-26T13:36:32.912Z,21
2023-03-26T13:39:04.083Z,21.1
2023-03-26T13:41:34.967Z,21
2023-03-26T13:44:05.513Z,21
2023-03-26T13:46:35.652Z,21.1
2023-03-26T13:49:05.934Z,21
2023-03-26T13:51:36.181Z,21
2023-03-26T13:54:06.588Z,21
2023-03-26T13:56:36.722Z,20.8
2023-03-26T13:59:07.519Z,20.8
2023-03-26T14:01:38.086Z,20.8
2023-03-26T14:04:09.017Z,20.8
2023-03-26T14:06:39.567Z,20.8
2023-03-26T14:09:10.236Z,20.8
2023-03-26T14:11:40.677Z,20.8
2023-03-26T14:14:09.846Z,20.9
2023-03-26T14:16:40.515Z,21
2023-03-26T14:19:11.041Z,21.2
2023-03-26T14:21:41.514Z,21.2
2023-03-26T14:24:12.109Z,21.2
2023-03-26T14:26:42.500Z,21.1
2023-03-26T14:29:13.500Z,21
2023-03-26T14:31:44.418Z,20.9
2023-03-26T14:34:15.297Z,20.7
2023-03-26T14:36:45.905Z,20.7
2023-03-26T14:39:16.710Z,20.6
2023-03-26T14:41:47.282Z,20.6
2023-03-26T14:44:18.225Z,20.6
2023-03-26T14:46:48.628Z,20.5
2023-03-26T14:49:18.661Z,20.4
2023-03-26T14:51:49.966Z,20.4
2023-03-26T14:54:20.840Z,20.3
2023-03-26T14:56:51.557Z,20.4
2023-03-26T14:59:21.748Z,20.4
2023-03-26T15:01:52.592Z,20.3
2023-03-26T15:04:23.341Z,20.3
2023-03-26T15:06:53.845Z,20.4
2023-03-26T15:09:24.098Z,20.3
2023-03-26T15:11:54.625Z,20.3
2023-03-26T15:14:25.192Z,20.3
2023-03-26T15:16:55.825Z,20.2
2023-03-26T15:19:26.619Z,20.2
2023-03-26T15:21:57.045Z,20.3
2023-03-26T15:24:28.208Z,20.3
2023-03-26T15:26:58.635Z,20.2
2023-03-26T15:29:28.892Z,20.1
2023-03-26T15:31:59.309Z,20
2023-03-26T15:34:29.506Z,20.1
2023-03-26T15:36:59.834Z,20
2023-03-26T15:39:30.110Z,20
2023-03-26T15:42:00.493Z,19.9
2023-03-26T15:44:32.964Z,19.8
2023-03-26T15:47:01.553Z,19.7
2023-03-26T15:49:32.429Z,19.6
2023-03-26T15:52:02.978Z,19.5
2023-03-26T15:54:33.623Z,19.3
2023-03-26T15:57:03.830Z,19.4
2023-03-26T15:59:34.015Z,19.3
2023-03-26T16:02:04.338Z,19.3
2023-03-26T16:04:35.240Z,19.4
2023-03-26T16:07:05.482Z,19.4
2023-03-26T16:09:35.838Z,19.3
2023-03-26T16:12:06.256Z,19.3
2023-03-26T16:14:37.256Z,19.3
2023-03-26T16:17:07.744Z,19.2
2023-03-26T16:19:38.351Z,19.2
2023-03-26T16:22:08.620Z,19.1
2023-03-26T16:24:39.250Z,19.1
2023-03-26T16:27:10.013Z,19
2023-03-26T16:29:40.562Z,19.1
2023-03-26T16:32:09.220Z,19.1
2023-03-26T16:34:39.337Z,19
2023-03-26T16:37:09.623Z,18.9
2023-03-26T16:39:39.630Z,19
2023-03-26T16:42:10.586Z,18.8
2023-03-26T16:44:40.941Z,18.8
2023-03-26T16:47:11.393Z,18.7
2023-03-26T16:49:41.464Z,18.6
2023-03-26T16:52:11.584Z,18.6
2023-03-26T16:54:41.502Z,18.6
2023-03-26T16:57:12.237Z,18.5
2023-03-26T16:59:42.403Z,18.6
2023-03-26T17:02:12.551Z,18.4
2023-03-26T17:04:42.724Z,18.4
2023-03-26T17:07:12.808Z,18.3
2023-03-26T17:09:43.339Z,18.3
2023-03-26T17:12:15.315Z,18.1
2023-03-26T17:14:46.168Z,18.2
2023-03-26T17:17:16.708Z,18.1
2023-03-26T17:19:46.729Z,18.1
2023-03-26T17:22:17.237Z,18.1
2023-03-26T17:24:47.434Z,18
2023-03-26T17:27:18.513Z,17.8
2023-03-26T17:29:47.660Z,17.8
2023-03-26T17:32:17.902Z,17.8
2023-03-26T17:34:48.412Z,17.6
2023-03-26T17:37:19.121Z,17.6
2023-03-26T17:39:49.315Z,17.5
2023-03-26T17:42:19.648Z,17.4
2023-03-26T17:44:49.996Z,17.5
2023-03-26T17:47:20.679Z,17.5
2023-03-26T17:49:50.836Z,17.5
2023-03-26T17:52:21.382Z,17.4
2023-03-26T17:54:51.598Z,17.4
2023-03-26T17:57:21.806Z,17.3
2023-03-26T17:59:52.120Z,17.3
2023-03-26T18:02:22.493Z,17.3
2023-03-26T18:04:52.558Z,17.1
2023-03-26T18:07:23.020Z,17.1
2023-03-26T18:09:53.527Z,17
2023-03-26T18:12:24.268Z,16.9
2023-03-26T18:14:54.679Z,17
2023-03-26T18:17:25.322Z,17
2023-03-26T18:19:54.380Z,16.9
2023-03-26T18:22:24.624Z,16.9
2023-03-26T18:24:54.752Z,16.9
2023-03-26T18:27:25.222Z,16.9
2023-03-26T18:29:55.064Z,16.9
2023-03-26T18:32:25.480Z,16.9
2023-03-26T18:34:55.636Z,16.8
2023-03-26T18:37:26.123Z,16.7
2023-03-26T18:39:56.487Z,16.7
2023-03-26T18:42:27.162Z,16.7
2023-03-26T18:44:59.681Z,16.8
2023-03-26T18:47:28.363Z,16.7
2023-03-26T18:49:58.668Z,16.6
2023-03-26T18:52:29.012Z,16.7
2023-03-26T18:54:59.463Z,16.7
2023-03-26T18:57:29.663Z,16.6
2023-03-26T19:00:00.172Z,16.7
2023-03-26T19:02:30.527Z,16.8
2023-03-26T19:05:00.453Z,16.4
2023-03-26T19:07:30.559Z,16.5
2023-03-26T19:10:00.611Z,16.5
2023-03-26T19:12:30.860Z,16.5
2023-03-26T19:15:01.651Z,16.4
2023-03-26T19:17:31.952Z,16.5
2023-03-26T19:20:02.123Z,16.5
2023-03-26T19:22:33.180Z,16.5
2023-03-26T19:25:03.361Z,16.5
2023-03-26T19:27:33.392Z,16.5
2023-03-26T19:30:03.616Z,16.4
2023-03-26T19:32:33.738Z,16.4
2023-03-26T19:35:03.912Z,16.4
2023-03-26T19:37:34.306Z,16.4
2023-03-26T19:40:04.596Z,16.3
2023-03-26T19:42:42.742Z,16.3
2023-03-26T19:45:03.636Z,16.2
2023-03-26T19:47:46.329Z,16.1
2023-03-26T19:50:04.463Z,16.2
2023-03-26T19:52:34.755Z,16.1
2023-03-26T19:55:05.356Z,16.1
2023-03-26T19:57:36.145Z,16.1
2023-03-26T20:00:06.740Z,16
2023-03-26T20:02:37.852Z,16.1
2023-03-26T20:05:08.226Z,16
2023-03-26T20:07:38.841Z,16
2023-03-26T20:10:09.072Z,16.1
2023-03-26T20:12:37.849Z,16.1
2023-03-26T20:15:08.002Z,16
2023-03-26T20:17:38.191Z,16.1
2023-03-26T20:20:06.867Z,16
2023-03-26T20:22:36.881Z,16
2023-03-26T20:25:06.878Z,16.1
2023-03-26T20:27:36.908Z,16.1
2023-03-26T20:30:07.373Z,16.1
2023-03-26T20:32:37.446Z,16.1
2023-03-26T20:35:08.062Z,15.9
2023-03-26T20:37:38.465Z,16
2023-03-26T20:40:08.458Z,16
2023-03-26T20:42:38.853Z,16
2023-03-26T20:45:09.140Z,15.9
2023-03-26T20:47:39.781Z,15.9
2023-03-26T20:50:09.918Z,15.8
2023-03-26T20:52:40.113Z,15.8
2023-03-26T20:55:10.517Z,15.8
2023-03-26T20:57:40.218Z,15.7
2023-03-26T21:00:10.805Z,15.8
2023-03-26T21:02:42.749Z,15.7
2023-03-26T21:05:11.380Z,15.6
2023-03-26T21:07:41.525Z,15.6
2023-03-26T21:10:11.656Z,15.7
2023-03-26T21:12:44.577Z,15.6
2023-03-26T21:15:20.766Z,15.7
2023-03-26T21:17:43.000Z,15.6
2023-03-26T21:20:13.002Z,15.7
2023-03-26T21:22:41.539Z,15.5
2023-03-26T21:25:13.782Z,15.6
2023-03-26T21:27:44.340Z,15.6
2023-03-26T21:30:13.155Z,15.6
2023-03-26T21:32:43.798Z,15.6
2023-03-26T21:35:14.044Z,15.7
2023-03-26T21:37:44.296Z,15.7
2023-03-26T21:40:16.104Z,15.7
2023-03-26T21:42:47.226Z,15.7
2023-03-26T21:45:17.514Z,15.7
2023-03-26T21:47:47.878Z,15.7
2023-03-26T21:50:18.993Z,15.7
2023-03-26T21:52:49.217Z,15.8
2023-03-26T21:55:21.299Z,15.7
2023-03-26T21:57:52.007Z,15.6
2023-03-26T22:00:25.844Z,15.7
2023-03-26T22:02:52.626Z,15.6
2023-03-26T22:05:22.911Z,15.6
2023-03-26T22:07:53.015Z,15.6
2023-03-26T22:10:23.312Z,15.6
2023-03-26T22:12:53.550Z,15.6
2023-03-26T22:15:22.120Z,15.6
2023-03-26T22:17:52.698Z,15.5
2023-03-26T22:20:23.019Z,15.4
2023-03-26T22:22:52.985Z,15.5
2023-03-26T22:25:23.105Z,15.5
2023-03-26T22:27:54.711Z,15.4
2023-03-26T22:30:25.338Z,15.5
2023-03-26T22:32:54.244Z,15.5
2023-03-26T22:35:26.214Z,15.4
2023-03-26T22:38:00.588Z,15.4
2023-03-26T22:40:24.453Z,15.5
2023-03-26T22:42:55.802Z,15.6
2023-03-26T22:45:26.228Z,15.6
2023-03-26T22:48:03.299Z,15.6
2023-03-26T22:50:26.150Z,15.7
2023-03-26T22:52:56.807Z,15.7
2023-03-26T22:55:28.555Z,15.7
2023-03-26T22:57:57.371Z,15.7
2023-03-26T23:00:27.757Z,15.8
2023-03-26T23:02:56.918Z,15.8
2023-03-26T23:05:27.129Z,15.7
2023-03-26T23:07:57.386Z,15.7
2023-03-26T23:10:28.463Z,15.6
2023-03-26T23:12:59.005Z,15.7
2023-03-26T23:15:29.415Z,15.7
2023-03-26T23:17:59.547Z,15.7
2023-03-26T23:20:30.704Z,15.7
2023-03-26T23:23:02.012Z,15.7
2023-03-26T23:25:32.621Z,15.7
2023-03-26T23:28:03.422Z,15.8
2023-03-26T23:30:34.249Z,15.8
2023-03-26T23:33:05.117Z,15.7
2023-03-26T23:35:36.384Z,15.7
2023-03-26T23:38:06.872Z,15.8
2023-03-26T23:40:37.256Z,15.8
2023-03-26T23:43:07.701Z,15.9
2023-03-26T23:45:38.190Z,15.9
2023-03-26T23:48:07.082Z,15.9
2023-03-26T23:50:37.645Z,15.9
2023-03-26T23:53:14.296Z,16
2023-03-26T23:55:44.919Z,16
2023-03-26T23:58:15.093Z,16
